METAR Data
IDs: Format: Raw Decoded Include TAF

Data at: 2108 UTC 21 Sep 2021

KAWM 212053Z AUTO 34006KT 10SM -RA FEW011 BKN019 25/22 A3002 RMK AO2 RAB1958 SLP161 P0000 60001 T02500217 53003 $
KAWM 212051Z AUTO 36006KT 10SM -RA FEW011 BKN019 BKN110 25/22 A3001 RMK AO2 RAB1958 P0000 $
KAWM 211953Z AUTO 00000KT 10SM FEW035 SCT095 BKN120 27/22 A3000 RMK AO2 RAE51 SLP154 P0001 T02670217
KAWM 211853Z AUTO 34004KT 10SM -RA BKN100 OVC120 31/21 A3001 RMK AO2 LTG DSNT S RAB50 SLP157 P0000 T03060206
KAWM 211753Z AUTO VRB05KT 10SM BKN110 31/22 A3003 RMK AO2 RAB02E17 SLP163 P0000 60000 T03110217 10317 20217 50003
KAWM 211653Z AUTO 01004KT 10SM SCT110 29/21 A3004 RMK AO2 LTG DSNT SE AND S SLP166 T02940206
KAWM 211623Z AUTO 04007KT 10SM BKN100 28/21 A3004 RMK AO2 LTG DSNT SE AND S T02830211
KAWM 211553Z AUTO 03007KT 10SM VCTS SCT034 BKN045 OVC110 25/21 A3004 RMK AO2 WSHFT 1508 LTG DSNT E AND S TSB09E26 SLP169 T02500206
KAWM 211539Z AUTO 04009KT 10SM VCTS SCT026 OVC034 24/21 A3005 RMK AO2 WSHFT 1508 LTG DSNT S TSB09E26 T02440206
KAWM 211526Z AUTO 03010G18KT 10SM VCTS FEW013 BKN028 OVC034 25/21 A3005 RMK AO2 WSHFT 1508 LTG DSNT NE AND SE TSB09E26 T02500206
KAWM 211515Z AUTO 01013G18KT 10SM TS FEW013 BKN026 OVC042 27/21 A3005 RMK AO2 LTG DSNT N AND NE TSB09 T02670211
KAWM 211508Z AUTO 34011G16KT 10SM VCTS FEW015 BKN021 BKN038 28/23 A3004 RMK AO2 LTG DSNT N AND NE PRESRR T02780228
KAWM 211453Z AUTO 28004KT 10SM SCT042 SCT049 BKN065 30/23 A3002 RMK AO2 LTG DSNT N SLP160 T03000228 51013
KAWM 211353Z AUTO 19005KT 10SM CLR 27/23 A3001 RMK AO2 SLP155 T02720228
KAWM 211253Z AUTO 17006KT 10SM SCT065 25/22 A3000 RMK AO2 SLP154 T02500222
KAWM 211153Z AUTO 16005KT 8SM FEW055 22/19 A2998 RMK AO2 SLP148 T02170194 10233 20217 51016
KAWM 211131Z AUTO 15004KT 4SM BR SCT055 22/20 A2998 RMK AO2 T02220200
KAWM 211121Z AUTO 00000KT 1 3/4SM HZ SCT055 23/20 A2998 RMK AO2 T02280200
KAWM 211053Z AUTO 00000KT 8SM FEW060 23/21 A2997 RMK AO2 SLP145 T02280206
KAWM 210953Z AUTO 17004KT 10SM CLR 23/21 A2995 RMK AO2 SLP136 T02280206
KAWM 210853Z AUTO 16004KT 10SM CLR 23/21 A2993 RMK AO2 SLP131 T02280206 55001
KAWM 210753Z AUTO 17004KT 10SM CLR 23/21 A2993 RMK AO2 SLP131 T02280206
KAWM 210653Z AUTO 16005KT 10SM CLR 23/21 A2994 RMK AO2 SLP133 T02330211
KAWM 210553Z AUTO 15004KT 10SM CLR 23/21 A2994 RMK AO2 SLP132 60000 T02330206 10283 20233 403330233 51004
KAWM 210453Z AUTO 16005KT 10SM CLR 23/21 A2994 RMK AO2 SLP132 T02330211
KAWM 210353Z AUTO 17005KT 10SM CLR 25/21 A2993 RMK AO2 SLP131 T02500211
KAWM 210253Z AUTO 15006KT 10SM CLR 25/21 A2992 RMK AO2 SLP128 60000 T02500211 53009
KAWM 210153Z AUTO 14008KT 10SM CLR 26/22 A2991 RMK AO2 SLP125 T02610222
KAWM 210053Z AUTO 15005KT 10SM CLR 27/22 A2990 RMK AO2 RAE20 SLP120 P0000 T02720222
KAWM 202353Z AUTO 16006KT 10SM -RA CLR 28/22 A2990 RMK AO2 RAB51 SLP118 P0000 60000 T02830222 10333 20283 52004
KAWM 202253Z AUTO 14008KT 10SM FEW047 BKN110 30/22 A2989 RMK AO2 SLP116 T03000217
KAWM 202153Z AUTO 14009KT 10SM BKN110 30/22 A2989 RMK AO2 SLP117 T03000217